sensor_id;sensor_type;location;lat;lon;timestamp;pressure;altitude;pressure_sealevel;temperature;humidity
30636;BME280;17400;52.392;9.750;2023-01-16T00:01:47;99194.47;;;6.46;100.00
30636;BME280;17400;52.392;9.750;2023-01-16T00:04:15;99187.66;;;6.50;100.00
30636;BME280;17400;52.392;9.750;2023-01-16T00:06:43;99172.97;;;6.53;100.00
30636;BME280;17400;52.392;9.750;2023-01-16T00:09:11;99182.88;;;6.59;100.00
30636;BME280;17400;52.392;9.750;2023-01-16T00:11:39;99180.19;;;6.45;100.00
30636;BME280;17400;52.392;9.750;2023-01-16T00:14:07;99173.78;;;6.46;100.00
30636;BME280;17400;52.392;9.750;2023-01-16T00:16:35;99167.38;;;6.47;100.00
30636;BME280;17400;52.392;9.750;2023-01-16T00:19:03;99153.13;;;6.47;100.00
30636;BME280;17400;52.392;9.750;2023-01-16T00:21:31;99153.94;;;6.47;100.00
30636;BME280;17400;52.392;9.750;2023-01-16T00:23:58;99149.38;;;6.48;100.00
30636;BME280;17400;52.392;9.750;2023-01-16T00:26:27;99140.28;;;6.42;100.00
30636;BME280;17400;52.392;9.750;2023-01-16T00:28:55;99140.06;;;6.50;100.00
30636;BME280;17400;52.392;9.750;2023-01-16T00:31:25;99136.97;;;6.54;100.00
30636;BME280;17400;52.392;9.750;2023-01-16T00:33:52;99133.66;;;6.52;100.00
30636;BME280;17400;52.392;9.750;2023-01-16T00:36:20;99128.91;;;6.54;100.00
30636;BME280;17400;52.392;9.750;2023-01-16T00:38:48;99119.59;;;6.49;99.12
30636;BME280;17400;52.392;9.750;2023-01-16T00:41:16;99117.53;;;6.52;99.24
30636;BME280;17400;52.392;9.750;2023-01-16T00:43:43;99109.25;;;6.53;99.45
30636;BME280;17400;52.392;9.750;2023-01-16T00:46:11;99119.19;;;6.53;99.29
30636;BME280;17400;52.392;9.750;2023-01-16T00:48:40;99112.34;;;6.57;99.04
30636;BME280;17400;52.392;9.750;2023-01-16T00:51:08;99111.28;;;6.71;99.11
30636;BME280;17400;52.392;9.750;2023-01-16T00:53:35;99113.97;;;6.71;97.01
30636;BME280;17400;52.392;9.750;2023-01-16T00:56:04;99111.94;;;6.60;97.37
30636;BME280;17400;52.392;9.750;2023-01-16T00:58:32;99115.06;;;6.50;97.72
30636;BME280;17400;52.392;9.750;2023-01-16T01:01:01;99111.97;;;6.46;97.86
30636;BME280;17400;52.392;9.750;2023-01-16T01:03:29;99108.84;;;6.49;99.48
30636;BME280;17400;52.392;9.750;2023-01-16T01:05:58;99109.44;;;6.58;99.53
30636;BME280;17400;52.392;9.750;2023-01-16T01:08:25;99112.16;;;6.52;100.00
30636;BME280;17400;52.392;9.750;2023-01-16T01:10:53;99110.50;;;6.50;100.00
30636;BME280;17400;52.392;9.750;2023-01-16T01:13:21;99108.44;;;6.53;100.00
30636;BME280;17400;52.392;9.750;2023-01-16T01:15:48;99110.91;;;6.61;100.00
30636;BME280;17400;52.392;9.750;2023-01-16T01:18:16;99105.72;;;6.66;100.00
30636;BME280;17400;52.392;9.750;2023-01-16T01:20:43;99108.84;;;6.56;100.00
30636;BME280;17400;52.392;9.750;2023-01-16T01:23:12;99105.56;;;6.47;100.00
30636;BME280;17400;52.392;9.750;2023-01-16T01:25:40;99092.94;;;6.48;100.00
30636;BME280;17400;52.392;9.750;2023-01-16T01:28:07;99087.78;;;6.40;100.00
30636;BME280;17400;52.392;9.750;2023-01-16T01:30:37;99090.72;;;6.25;100.00
30636;BME280;17400;52.392;9.750;2023-01-16T01:33:04;99077.50;;;6.16;100.00
30636;BME280;17400;52.392;9.750;2023-01-16T01:35:32;99084.91;;;6.21;100.00
30636;BME280;17400;52.392;9.750;2023-01-16T01:38:00;99079.53;;;6.21;100.00
30636;BME280;17400;52.392;9.750;2023-01-16T01:40:30;99074.97;;;6.28;100.00
30636;BME280;17400;52.392;9.750;2023-01-16T01:42:57;99076.03;;;6.27;100.00
30636;BME280;17400;52.392;9.750;2023-01-16T01:45:26;99072.28;;;6.22;100.00
30636;BME280;17400;52.392;9.750;2023-01-16T01:47:57;99077.28;;;6.11;100.00
30636;BME280;17400;52.392;9.750;2023-01-16T01:50:35;99073.75;;;6.04;100.00
30636;BME280;17400;52.392;9.750;2023-01-16T01:53:07;99066.34;;;6.06;100.00
30636;BME280;17400;52.392;9.750;2023-01-16T01:55:38;99066.56;;;6.05;100.00
30636;BME280;17400;52.392;9.750;2023-01-16T01:58:07;99057.22;;;6.00;100.00
30636;BME280;17400;52.392;9.750;2023-01-16T02:00:35;99054.75;;;5.99;100.00
30636;BME280;17400;52.392;9.750;2023-01-16T02:03:07;99057.03;;;6.15;100.00
30636;BME280;17400;52.392;9.750;2023-01-16T02:05:37;99042.34;;;6.18;100.00
30636;BME280;17400;52.392;9.750;2023-01-16T02:08:07;99033.25;;;6.12;100.00
30636;BME280;17400;52.392;9.750;2023-01-16T02:10:39;99035.09;;;6.19;100.00
30636;BME280;17400;52.392;9.750;2023-01-16T02:13:09;99029.94;;;6.24;100.00
30636;BME280;17400;52.392;9.750;2023-01-16T02:15:37;99030.75;;;6.24;100.00
30636;BME280;17400;52.392;9.750;2023-01-16T02:18:26;99025.59;;;6.23;100.00
30636;BME280;17400;52.392;9.750;2023-01-16T02:21:20;99018.38;;;6.23;100.00
30636;BME280;17400;52.392;9.750;2023-01-16T02:24:14;99024.97;;;6.21;100.00
30636;BME280;17400;52.392;9.750;2023-01-16T02:27:02;99015.47;;;6.18;100.00
30636;BME280;17400;52.392;9.750;2023-01-16T02:29:49;99008.88;;;6.21;100.00
30636;BME280;17400;52.392;9.750;2023-01-16T02:32:32;99000.56;;;6.29;100.00
30636;BME280;17400;52.392;9.750;2023-01-16T02:35:16;99010.50;;;6.22;100.00
30636;BME280;17400;52.392;9.750;2023-01-16T02:37:49;98989.84;;;6.15;100.00
30636;BME280;17400;52.392;9.750;2023-01-16T02:40:25;98989.22;;;6.20;100.00
30636;BME280;17400;52.392;9.750;2023-01-16T02:43:02;98985.72;;;6.20;100.00
30636;BME280;17400;52.392;9.750;2023-01-16T02:45:40;98987.56;;;6.19;100.00
30636;BME280;17400;52.392;9.750;2023-01-16T02:48:13;98977.84;;;6.25;100.00
30636;BME280;17400;52.392;9.750;2023-01-16T02:50:53;98967.66;;;6.33;100.00
30636;BME280;17400;52.392;9.750;2023-01-16T02:53:28;98961.28;;;6.28;100.00
30636;BME280;17400;52.392;9.750;2023-01-16T02:55:57;98953.41;;;6.33;100.00
30636;BME280;17400;52.392;9.750;2023-01-16T02:58:31;98954.22;;;6.33;100.00
30636;BME280;17400;52.392;9.750;2023-01-16T03:01:00;98948.41;;;6.43;100.00
30636;BME280;17400;52.392;9.750;2023-01-16T03:03:41;98955.81;;;6.48;100.00
30636;BME280;17400;52.392;9.750;2023-01-16T03:06:41;98948.97;;;6.52;100.00
30636;BME280;17400;52.392;9.750;2023-01-16T03:09:26;98948.34;;;6.57;100.00
30636;BME280;17400;52.392;9.750;2023-01-16T03:12:17;98943.38;;;6.60;100.00
30636;BME280;17400;52.392;9.750;2023-01-16T03:14:55;98938.25;;;6.45;100.00
30636;BME280;17400;52.392;9.750;2023-01-16T03:17:39;98937.22;;;6.46;100.00
30636;BME280;17400;52.392;9.750;2023-01-16T03:20:24;98933.50;;;6.47;100.00
30636;BME280;17400;52.392;9.750;2023-01-16T03:23:01;98925.00;;;6.50;100.00
30636;BME280;17400;52.392;9.750;2023-01-16T03:25:35;98920.44;;;6.58;100.00
30636;BME280;17400;52.392;9.750;2023-01-16T03:28:11;98914.00;;;6.59;100.00
30636;BME280;17400;52.392;9.750;2023-01-16T03:30:49;98910.72;;;6.57;100.00
30636;BME280;17400;52.392;9.750;2023-01-16T03:33:23;98911.19;;;6.40;100.00
30636;BME280;17400;52.392;9.750;2023-01-16T03:36:01;98908.72;;;6.39;100.00
30636;BME280;17400;52.392;9.750;2023-01-16T03:38:34;98903.19;;;6.27;100.00
30636;BME280;17400;52.392;9.750;2023-01-16T03:41:06;98896.97;;;6.33;100.00
30636;BME280;17400;52.392;9.750;2023-01-16T03:43:37;98894.91;;;6.35;100.00
30636;BME280;17400;52.392;9.750;2023-01-16T03:46:09;98885.78;;;6.36;100.00
30636;BME280;17400;52.392;9.750;2023-01-16T03:48:44;98889.28;;;6.43;100.00
30636;BME280;17400;52.392;9.750;2023-01-16T03:51:18;98881.81;;;6.45;100.00
30636;BME280;17400;52.392;9.750;2023-01-16T03:53:53;98881.63;;;6.40;100.00
30636;BME280;17400;52.392;9.750;2023-01-16T03:56:29;98871.06;;;6.45;100.00
30636;BME280;17400;52.392;9.750;2023-01-16T03:59:00;98862.38;;;6.50;100.00
30636;BME280;17400;52.392;9.750;2023-01-16T04:01:35;98870.81;;;6.54;100.00
30636;BME280;17400;52.392;9.750;2023-01-16T04:04:06;98856.53;;;6.53;100.00
30636;BME280;17400;52.392;9.750;2023-01-16T04:06:42;98858.84;;;6.49;100.00
30636;BME280;17400;52.392;9.750;2023-01-16T04:09:17;98852.66;;;6.49;100.00
30636;BME280;17400;52.392;9.750;2023-01-16T04:11:47;98848.97;;;6.43;100.00
30636;BME280;17400;52.392;9.750;2023-01-16T04:14:18;98848.53;;;6.46;100.00
30636;BME280;17400;52.392;9.750;2023-01-16T04:16:48;98838.97;;;6.50;100.00
30636;BME280;17400;52.392;9.750;2023-01-16T04:19:18;98833.38;;;6.52;100.00
30636;BME280;17400;52.392;9.750;2023-01-16T04:21:47;98832.56;;;6.52;100.00
30636;BME280;17400;52.392;9.750;2023-01-16T04:24:16;98836.06;;;6.52;100.00
30636;BME280;17400;52.392;9.750;2023-01-16T04:26:43;98822.09;;;6.43;100.00
30636;BME280;17400;52.392;9.750;2023-01-16T04:29:11;98817.09;;;6.47;100.00
30636;BME280;17400;52.392;9.750;2023-01-16T04:31:39;98804.31;;;6.42;100.00
30636;BME280;17400;52.392;9.750;2023-01-16T04:34:06;98802.25;;;6.38;100.00
30636;BME280;17400;52.392;9.750;2023-01-16T04:36:34;98808.06;;;6.34;100.00
30636;BME280;17400;52.392;9.750;2023-01-16T04:39:03;98805.66;;;6.26;100.00
30636;BME280;17400;52.392;9.750;2023-01-16T04:41:30;98800.44;;;6.31;100.00
30636;BME280;17400;52.392;9.750;2023-01-16T04:44:06;98793.66;;;6.29;100.00
30636;BME280;17400;52.392;9.750;2023-01-16T04:46:35;98783.47;;;6.31;100.00
30636;BME280;17400;52.392;9.750;2023-01-16T04:49:04;98783.34;;;6.26;100.00
30636;BME280;17400;52.392;9.750;2023-01-16T04:51:33;98784.19;;;6.20;100.00
30636;BME280;17400;52.392;9.750;2023-01-16T04:54:00;98789.81;;;6.11;100.00
30636;BME280;17400;52.392;9.750;2023-01-16T04:56:29;98772.81;;;6.17;100.00
30636;BME280;17400;52.392;9.750;2023-01-16T04:58:57;98760.81;;;6.20;100.00
30636;BME280;17400;52.392;9.750;2023-01-16T05:01:25;98761.03;;;6.19;100.00
30636;BME280;17400;52.392;9.750;2023-01-16T05:03:53;98764.41;;;6.14;100.00
30636;BME280;17400;52.392;9.750;2023-01-16T05:06:20;98764.53;;;6.19;100.00
30636;BME280;17400;52.392;9.750;2023-01-16T05:08:48;98755.44;;;6.20;100.00
30636;BME280;17400;52.392;9.750;2023-01-16T05:11:15;98748.22;;;6.21;100.00
30636;BME280;17400;52.392;9.750;2023-01-16T05:13:44;98742.69;;;6.15;100.00
30636;BME280;17400;52.392;9.750;2023-01-16T05:16:12;98748.06;;;6.15;100.00
30636;BME280;17400;52.392;9.750;2023-01-16T05:18:39;98745.22;;;6.04;100.00
30636;BME280;17400;52.392;9.750;2023-01-16T05:21:07;98739.63;;;6.05;100.00
30636;BME280;17400;52.392;9.750;2023-01-16T05:23:35;98746.44;;;6.08;100.00
30636;BME280;17400;52.392;9.750;2023-01-16T05:26:04;98737.56;;;6.07;100.00
30636;BME280;17400;52.392;9.750;2023-01-16T05:28:34;98726.66;;;6.02;100.00
30636;BME280;17400;52.392;9.750;2023-01-16T05:31:04;98729.94;;;6.04;100.00
30636;BME280;17400;52.392;9.750;2023-01-16T05:33:32;98733.19;;;6.13;100.00
30636;BME280;17400;52.392;9.750;2023-01-16T05:35:59;98731.31;;;6.13;100.00
30636;BME280;17400;52.392;9.750;2023-01-16T05:38:27;98724.47;;;6.17;100.00
30636;BME280;17400;52.392;9.750;2023-01-16T05:40:54;98721.56;;;6.19;100.00
30636;BME280;17400;52.392;9.750;2023-01-16T05:43:23;98715.19;;;6.13;100.00
30636;BME280;17400;52.392;9.750;2023-01-16T05:45:51;98710.97;;;6.24;100.00
30636;BME280;17400;52.392;9.750;2023-01-16T05:48:20;98708.97;;;6.20;100.00
30636;BME280;17400;52.392;9.750;2023-01-16T05:50:49;98701.34;;;6.16;100.00
30636;BME280;17400;52.392;9.750;2023-01-16T05:53:17;98692.22;;;6.17;100.00
30636;BME280;17400;52.392;9.750;2023-01-16T05:55:46;98697.59;;;6.17;100.00
30636;BME280;17400;52.392;9.750;2023-01-16T05:58:15;98692.00;;;6.19;100.00
30636;BME280;17400;52.392;9.750;2023-01-16T06:00:43;98690.44;;;6.11;100.00
30636;BME280;17400;52.392;9.750;2023-01-16T06:03:10;98684.09;;;5.99;100.00
30636;BME280;17400;52.392;9.750;2023-01-16T06:05:40;98682.44;;;5.98;100.00
30636;BME280;17400;52.392;9.750;2023-01-16T06:08:07;98676.44;;;5.96;100.00
30636;BME280;17400;52.392;9.750;2023-01-16T06:10:35;98679.19;;;5.89;100.00
30636;BME280;17400;52.392;9.750;2023-01-16T06:13:03;98670.50;;;5.87;100.00
30636;BME280;17400;52.392;9.750;2023-01-16T06:15:30;98660.88;;;5.73;100.00
30636;BME280;17400;52.392;9.750;2023-01-16T06:17:58;98657.38;;;5.72;100.00
30636;BME280;17400;52.392;9.750;2023-01-16T06:20:26;98654.31;;;5.68;100.00
30636;BME280;17400;52.392;9.750;2023-01-16T06:22:55;98653.72;;;5.66;100.00
30636;BME280;17400;52.392;9.750;2023-01-16T06:25:22;98655.19;;;5.62;100.00
30636;BME280;17400;52.392;9.750;2023-01-16T06:27:50;98655.19;;;5.62;100.00
30636;BME280;17400;52.392;9.750;2023-01-16T06:30:18;98644.09;;;5.52;100.00
30636;BME280;17400;52.392;9.750;2023-01-16T06:32:47;98642.41;;;5.58;100.00
30636;BME280;17400;52.392;9.750;2023-01-16T06:35:15;98641.31;;;5.65;100.00
30636;BME280;17400;52.392;9.750;2023-01-16T06:37:43;98636.75;;;5.66;100.00
30636;BME280;17400;52.392;9.750;2023-01-16T06:40:12;98630.19;;;5.62;100.00
30636;BME280;17400;52.392;9.750;2023-01-16T06:42:40;98626.03;;;5.66;100.00
30636;BME280;17400;52.392;9.750;2023-01-16T06:45:08;98621.53;;;5.60;100.00
30636;BME280;17400;52.392;9.750;2023-01-16T06:47:36;98616.75;;;5.62;100.00
30636;BME280;17400;52.392;9.750;2023-01-16T06:50:04;98617.78;;;5.67;100.00
30636;BME280;17400;52.392;9.750;2023-01-16T06:52:32;98609.16;;;5.59;100.00
30636;BME280;17400;52.392;9.750;2023-01-16T06:55:01;98601.69;;;5.61;100.00
30636;BME280;17400;52.392;9.750;2023-01-16T06:57:30;98599.72;;;5.49;100.00
30636;BME280;17400;52.392;9.750;2023-01-16T06:59:58;98591.84;;;5.55;100.00
30636;BME280;17400;52.392;9.750;2023-01-16T07:02:25;98592.22;;;5.58;100.00
30636;BME280;17400;52.392;9.750;2023-01-16T07:04:53;98590.19;;;5.54;100.00
30636;BME280;17400;52.392;9.750;2023-01-16T07:07:21;98578.19;;;5.56;100.00
30636;BME280;17400;52.392;9.750;2023-01-16T07:09:49;98583.44;;;5.44;100.00
30636;BME280;17400;52.392;9.750;2023-01-16T07:12:16;98588.41;;;5.41;100.00
30636;BME280;17400;52.392;9.750;2023-01-16T07:14:45;98583.25;;;5.39;100.00
30636;BME280;17400;52.392;9.750;2023-01-16T07:17:31;98584.91;;;5.40;100.00
30636;BME280;17400;52.392;9.750;2023-01-16T07:20:16;98581.88;;;5.30;100.00
30636;BME280;17400;52.392;9.750;2023-01-16T07:23:14;98589.47;;;5.33;100.00
30636;BME280;17400;52.392;9.750;2023-01-16T07:25:43;98578.75;;;5.33;100.00
30636;BME280;17400;52.392;9.750;2023-01-16T07:28:10;98567.97;;;5.40;100.00
30636;BME280;17400;52.392;9.750;2023-01-16T07:30:39;98564.06;;;5.36;100.00
30636;BME280;17400;52.392;9.750;2023-01-16T07:33:07;98544.72;;;5.33;100.00
30636;BME280;17400;52.392;9.750;2023-01-16T07:35:35;98542.41;;;5.37;100.00
30636;BME280;17400;52.392;9.750;2023-01-16T07:38:02;98539.97;;;5.29;100.00
30636;BME280;17400;52.392;9.750;2023-01-16T07:40:30;98528.84;;;5.32;100.00
30636;BME280;17400;52.392;9.750;2023-01-16T07:42:58;98529.41;;;5.34;100.00
30636;BME280;17400;52.392;9.750;2023-01-16T07:45:25;98536.00;;;5.38;100.00
30636;BME280;17400;52.392;9.750;2023-01-16T07:47:55;98533.06;;;5.46;100.00
30636;BME280;17400;52.392;9.750;2023-01-16T07:50:22;98531.75;;;5.56;100.00
30636;BME280;17400;52.392;9.750;2023-01-16T07:52:51;98524.53;;;5.56;100.00
30636;BME280;17400;52.392;9.750;2023-01-16T07:55:19;98531.53;;;5.57;100.00
30636;BME280;17400;52.392;9.750;2023-01-16T07:57:46;98523.09;;;5.54;100.00
30636;BME280;17400;52.392;9.750;2023-01-16T08:00:14;98523.59;;;5.69;100.00
30636;BME280;17400;52.392;9.750;2023-01-16T08:02:42;98515.91;;;5.73;100.00
30636;BME280;17400;52.392;9.750;2023-01-16T08:05:11;98505.16;;;5.73;100.00
30636;BME280;17400;52.392;9.750;2023-01-16T08:07:39;98505.78;;;5.75;100.00
30636;BME280;17400;52.392;9.750;2023-01-16T08:10:07;98503.22;;;5.61;100.00
30636;BME280;17400;52.392;9.750;2023-01-16T08:12:36;98502.88;;;5.76;100.00
30636;BME280;17400;52.392;9.750;2023-01-16T08:15:05;98487.97;;;5.80;100.00
30636;BME280;17400;52.392;9.750;2023-01-16T08:17:33;98488.03;;;5.74;100.00
30636;BME280;17400;52.392;9.750;2023-01-16T08:20:01;98487.97;;;5.80;100.00
30636;BME280;17400;52.392;9.750;2023-01-16T08:22:30;98471.13;;;5.73;100.00
30636;BME280;17400;52.392;9.750;2023-01-16T08:24:58;98467.97;;;5.76;100.00
30636;BME280;17400;52.392;9.750;2023-01-16T08:27:25;98473.50;;;5.81;100.00
30636;BME280;17400;52.392;9.750;2023-01-16T08:29:53;98456.13;;;5.84;100.00
30636;BME280;17400;52.392;9.750;2023-01-16T08:32:20;98460.97;;;5.94;100.00
30636;BME280;17400;52.392;9.750;2023-01-16T08:34:48;98446.50;;;5.95;100.00
30636;BME280;17400;52.392;9.750;2023-01-16T08:37:16;98453.13;;;5.99;100.00
30636;BME280;17400;52.392;9.750;2023-01-16T08:39:44;98436.34;;;6.04;100.00
30636;BME280;17400;52.392;9.750;2023-01-16T08:42:12;98434.47;;;6.04;100.00
30636;BME280;17400;52.392;9.750;2023-01-16T08:44:58;98432.38;;;6.06;100.00
30636;BME280;17400;52.392;9.750;2023-01-16T08:47:44;98434.63;;;6.09;100.00
30636;BME280;17400;52.392;9.750;2023-01-16T08:50:30;98430.59;;;6.19;100.00
30636;BME280;17400;52.392;9.750;2023-01-16T08:53:15;98414.47;;;6.19;100.00
30636;BME280;17400;52.392;9.750;2023-01-16T08:55:44;98421.09;;;6.16;100.00
30636;BME280;17400;52.392;9.750;2023-01-16T08:58:11;98407.22;;;6.19;100.00
30636;BME280;17400;52.392;9.750;2023-01-16T09:00:39;98410.59;;;6.14;100.00
30636;BME280;17400;52.392;9.750;2023-01-16T09:03:06;98409.56;;;6.15;100.00
30636;BME280;17400;52.392;9.750;2023-01-16T09:05:34;98404.59;;;6.12;100.00
30636;BME280;17400;52.392;9.750;2023-01-16T09:08:02;98398.81;;;6.15;100.00
30636;BME280;17400;52.392;9.750;2023-01-16T09:10:29;98401.19;;;6.24;100.00
30636;BME280;17400;52.392;9.750;2023-01-16T09:12:58;98392.09;;;6.25;100.00
30636;BME280;17400;52.392;9.750;2023-01-16T09:15:44;98394.44;;;6.33;100.00
30636;BME280;17400;52.392;9.750;2023-01-16T09:18:11;98390.72;;;6.34;100.00
30636;BME280;17400;52.392;9.750;2023-01-16T09:20:39;98386.25;;;6.28;100.00
30636;BME280;17400;52.392;9.750;2023-01-16T09:23:07;98392.00;;;6.31;100.00
30636;BME280;17400;52.392;9.750;2023-01-16T09:25:34;98380.88;;;6.28;100.00
30636;BME280;17400;52.392;9.750;2023-01-16T09:28:04;98381.81;;;6.33;100.00
30636;BME280;17400;52.392;9.750;2023-01-16T09:30:32;98372.34;;;6.31;100.00
30636;BME280;17400;52.392;9.750;2023-01-16T09:33:00;98367.81;;;6.31;100.00
30636;BME280;17400;52.392;9.750;2023-01-16T09:35:28;98364.19;;;6.26;100.00
30636;BME280;17400;52.392;9.750;2023-01-16T09:37:55;98361.88;;;6.11;100.00
30636;BME280;17400;52.392;9.750;2023-01-16T09:40:23;98350.88;;;6.12;100.00
30636;BME280;17400;52.392;9.750;2023-01-16T09:42:58;98346.72;;;6.16;100.00
30636;BME280;17400;52.392;9.750;2023-01-16T09:45:49;98341.06;;;6.06;100.00
30636;BME280;17400;52.392;9.750;2023-01-16T09:48:24;98326.13;;;6.10;100.00
30636;BME280;17400;52.392;9.750;2023-01-16T09:50:54;98326.28;;;6.15;100.00
30636;BME280;17400;52.392;9.750;2023-01-16T09:53:34;98310.72;;;6.17;100.00
30636;BME280;17400;52.392;9.750;2023-01-16T09:56:21;98300.06;;;6.11;100.00
30636;BME280;17400;52.392;9.750;2023-01-16T09:59:19;98288.75;;;6.09;100.00
30636;BME280;17400;52.392;9.750;2023-01-16T10:01:54;98285.09;;;6.03;100.00
30636;BME280;17400;52.392;9.750;2023-01-16T10:04:24;98283.69;;;6.00;100.00
30636;BME280;17400;52.392;9.750;2023-01-16T10:07:03;98274.81;;;6.00;100.00
30636;BME280;17400;52.392;9.750;2023-01-16T10:09:38;98269.44;;;6.00;100.00
30636;BME280;17400;52.392;9.750;2023-01-16T10:12:09;98258.84;;;6.05;100.00
30636;BME280;17400;52.392;9.750;2023-01-16T10:14:45;98242.72;;;6.05;100.00
30636;BME280;17400;52.392;9.750;2023-01-16T10:17:24;98236.56;;;6.05;100.00
30636;BME280;17400;52.392;9.750;2023-01-16T10:20:12;98228.59;;;6.10;100.00
30636;BME280;17400;52.392;9.750;2023-01-16T10:22:53;98215.06;;;6.05;100.00
30636;BME280;17400;52.392;9.750;2023-01-16T10:25:28;98210.25;;;6.07;100.00
30636;BME280;17400;52.392;9.750;2023-01-16T10:28:11;98205.03;;;6.12;100.00
30636;BME280;17400;52.392;9.750;2023-01-16T10:30:46;98194.97;;;6.19;100.00
30636;BME280;17400;52.392;9.750;2023-01-16T10:33:21;98197.22;;;6.22;100.00
30636;BME280;17400;52.392;9.750;2023-01-16T10:35:53;98192.69;;;6.34;100.00
30636;BME280;17400;52.392;9.750;2023-01-16T10:38:35;98185.34;;;6.30;100.00
30636;BME280;17400;52.392;9.750;2023-01-16T10:41:14;98166.66;;;6.35;100.00
30636;BME280;17400;52.392;9.750;2023-01-16T10:43:57;98169.69;;;6.50;100.00
30636;BME280;17400;52.392;9.750;2023-01-16T10:46:43;98162.22;;;6.53;100.00
30636;BME280;17400;52.392;9.750;2023-01-16T10:49:31;98143.50;;;6.58;100.00
30636;BME280;17400;52.392;9.750;2023-01-16T10:52:01;98134.28;;;6.54;100.00
30636;BME280;17400;52.392;9.750;2023-01-16T10:54:31;98125.03;;;6.49;100.00
30636;BME280;17400;52.392;9.750;2023-01-16T10:56:59;98119.66;;;6.49;100.00
30636;BME280;17400;52.392;9.750;2023-01-16T10:59:31;98114.75;;;6.46;100.00
30636;BME280;17400;52.392;9.750;2023-01-16T11:02:03;98109.16;;;6.48;100.00
30636;BME280;17400;52.392;9.750;2023-01-16T11:04:42;98108.47;;;6.53;100.00
30636;BME280;17400;52.392;9.750;2023-01-16T11:07:16;98098.16;;;6.49;100.00
30636;BME280;17400;52.392;9.750;2023-01-16T11:09:45;98084.28;;;6.41;100.00
30636;BME280;17400;52.392;9.750;2023-01-16T11:12:21;98087.88;;;6.46;100.00
30636;BME280;17400;52.392;9.750;2023-01-16T11:15:17;98072.25;;;6.43;100.00
30636;BME280;17400;52.392;9.750;2023-01-16T11:18:18;98063.59;;;6.41;100.00
30636;BME280;17400;52.392;9.750;2023-01-16T11:21:01;98052.97;;;6.34;100.00
30636;BME280;17400;52.392;9.750;2023-01-16T11:23:42;98038.84;;;6.39;100.00
30636;BME280;17400;52.392;9.750;2023-01-16T11:26:11;98020.59;;;6.41;100.00
30636;BME280;17400;52.392;9.750;2023-01-16T11:28:42;98008.19;;;6.40;100.00
30636;BME280;17400;52.392;9.750;2023-01-16T11:31:13;98014.53;;;6.34;100.00
30636;BME280;17400;52.392;9.750;2023-01-16T11:33:44;98007.75;;;6.43;100.00
30636;BME280;17400;52.392;9.750;2023-01-16T11:36:17;97997.44;;;6.40;100.00
30636;BME280;17400;52.392;9.750;2023-01-16T11:38:46;97991.28;;;6.28;100.00
30636;BME280;17400;52.392;9.750;2023-01-16T11:41:18;97988.22;;;6.36;100.00
30636;BME280;17400;52.392;9.750;2023-01-16T11:43:49;97987.19;;;6.37;100.00
30636;BME280;17400;52.392;9.750;2023-01-16T11:46:49;97986.34;;;6.48;100.00
30636;BME280;17400;52.392;9.750;2023-01-16T11:49:24;97974.88;;;6.53;100.00
30636;BME280;17400;52.392;9.750;2023-01-16T11:51:58;97971.94;;;6.55;100.00
30636;BME280;17400;52.392;9.750;2023-01-16T11:54:31;97965.41;;;6.50;100.00
30636;BME280;17400;52.392;9.750;2023-01-16T11:57:17;97963.91;;;6.43;100.00
30636;BME280;17400;52.392;9.750;2023-01-16T12:00:06;97945.13;;;6.31;100.00
30636;BME280;17400;52.392;9.750;2023-01-16T12:02:55;97940.81;;;6.42;99.38
30636;BME280;17400;52.392;9.750;2023-01-16T12:05:38;97939.47;;;6.56;98.76
30636;BME280;17400;52.392;9.750;2023-01-16T12:08:37;97940.53;;;6.55;96.81
30636;BME280;17400;52.392;9.750;2023-01-16T12:11:14;97924.41;;;6.55;97.04
30636;BME280;17400;52.392;9.750;2023-01-16T12:13:48;97925.91;;;6.63;97.45
30636;BME280;17400;52.392;9.750;2023-01-16T12:16:47;97917.25;;;6.61;95.48
30636;BME280;17400;52.392;9.750;2023-01-16T12:19:39;97911.50;;;6.57;95.87
30636;BME280;17400;52.392;9.750;2023-01-16T12:22:19;97898.03;;;6.69;95.62
30636;BME280;17400;52.392;9.750;2023-01-16T12:24:58;97901.22;;;6.66;94.17
30636;BME280;17400;52.392;9.750;2023-01-16T12:27:37;97884.50;;;6.64;94.22
30636;BME280;17400;52.392;9.750;2023-01-16T12:30:22;97880.84;;;6.70;93.44
30636;BME280;17400;52.392;9.750;2023-01-16T12:33:01;97870.69;;;6.72;93.19
30636;BME280;17400;52.392;9.750;2023-01-16T12:35:47;97874.03;;;6.79;93.73
30636;BME280;17400;52.392;9.750;2023-01-16T12:38:19;97863.25;;;6.79;92.65
30636;BME280;17400;52.392;9.750;2023-01-16T12:41:01;97857.31;;;6.77;92.61
30636;BME280;17400;52.392;9.750;2023-01-16T12:43:56;97846.78;;;6.76;93.06
30636;BME280;17400;52.392;9.750;2023-01-16T12:46:34;97834.09;;;6.71;94.53
30636;BME280;17400;52.392;9.750;2023-01-16T12:49:19;97830.09;;;6.74;94.91
30636;BME280;17400;52.392;9.750;2023-01-16T12:52:00;97825.22;;;6.88;95.63
30636;BME280;17400;52.392;9.750;2023-01-16T12:54:54;97825.13;;;6.82;95.62
30636;BME280;17400;52.392;9.750;2023-01-16T12:57:37;97819.38;;;6.91;95.63
30636;BME280;17400;52.392;9.750;2023-01-16T13:00:12;97813.91;;;7.03;95.06
30636;BME280;17400;52.392;9.750;2023-01-16T13:02:43;97806.56;;;6.98;94.87
30636;BME280;17400;52.392;9.750;2023-01-16T13:05:17;97799.44;;;7.09;94.33
30636;BME280;17400;52.392;9.750;2023-01-16T13:07:49;97800.41;;;7.20;93.71
30636;BME280;17400;52.392;9.750;2023-01-16T13:10:22;97796.13;;;7.19;93.88
30636;BME280;17400;52.392;9.750;2023-01-16T13:13:15;97783.97;;;7.16;94.16
30636;BME280;17400;52.392;9.750;2023-01-16T13:16:00;97779.31;;;7.11;93.28
30636;BME280;17400;52.392;9.750;2023-01-16T13:18:32;97768.38;;;7.18;94.16
30636;BME280;17400;52.392;9.750;2023-01-16T13:21:04;97767.50;;;7.12;92.58
30636;BME280;17400;52.392;9.750;2023-01-16T13:23:38;97767.41;;;7.07;93.93
30636;BME280;17400;52.392;9.750;2023-01-16T13:26:09;97759.34;;;7.07;93.44
30636;BME280;17400;52.392;9.750;2023-01-16T13:28:42;97754.78;;;7.08;93.86
30636;BME280;17400;52.392;9.750;2023-01-16T13:31:17;97757.47;;;7.08;94.14
30636;BME280;17400;52.392;9.750;2023-01-16T13:33:48;97756.91;;;7.06;94.15